Time;durP1;ratioP1;P1;durP2;ratioP2;P2;SDS_P1;SDS_P2;PMS_P1;PMS_P2;Temp;Humidity;BMP_temperature;BMP_pressure;BME280_temperature;BME280_humidity;BME280_pressure;Samples;Min_cycle;Max_cycle;Signal;HPM_P1;HPM_P2
2022/08/25 00:02:00;;;;;;;5.03;4.53;;;22.50;97.70;;;;;;5063317;28;20460;-81
2022/08/25 00:04:28;;;;;;;6.53;5.70;;;22.50;97.80;;;;;;5063642;28;20433;-81
2022/08/25 00:06:55;;;;;;;5.67;5.17;;;22.50;98.00;;;;;;5063615;28;20960;-81
2022/08/25 00:09:26;;;;;;;6.70;5.60;;;22.50;98.00;;;;;;5063522;28;20787;-82
2022/08/25 00:11:53;;;;;;;7.40;4.83;;;22.50;98.00;;;;;;5063625;28;20485;-81
2022/08/25 00:14:23;;;;;;;6.17;5.30;;;22.50;97.90;;;;;;5063759;28;20441;-81
2022/08/25 00:16:50;;;;;;;6.53;5.83;;;22.50;98.00;;;;;;5063149;28;20469;-81
2022/08/25 00:19:21;;;;;;;5.90;5.37;;;22.40;98.10;;;;;;5062488;28;20469;-80
2022/08/25 00:21:49;;;;;;;7.67;6.90;;;22.40;98.40;;;;;;5059586;28;20457;-81
2022/08/25 00:24:17;;;;;;;6.50;5.90;;;22.30;98.60;;;;;;5059599;28;20437;-81
2022/08/25 00:26:47;;;;;;;7.30;6.50;;;22.30;98.90;;;;;;5058770;28;20799;-81
2022/08/25 00:29:14;;;;;;;6.03;5.27;;;22.20;99.00;;;;;;5052326;28;20937;-81
2022/08/25 00:31:41;;;;;;;6.30;5.70;;;22.20;99.20;;;;;;5052221;28;20468;-81
2022/08/25 00:34:11;;;;;;;6.17;5.57;;;22.10;99.50;;;;;;5056207;28;20438;-81
2022/08/25 00:36:40;;;;;;;5.87;5.00;;;22.10;99.70;;;;;;5057328;28;20437;-81
2022/08/25 00:39:09;;;;;;;5.80;5.20;;;22.10;99.90;;;;;;5058892;28;20504;-81
2022/08/25 00:41:37;;;;;;;7.20;5.60;;;22.10;99.90;;;;;;5056956;28;20454;-81
2022/08/25 00:44:06;;;;;;;6.33;5.73;;;22.00;99.90;;;;;;5051664;28;20433;-81
2022/08/25 00:46:36;;;;;;;5.70;5.20;;;22.00;99.90;;;;;;5050012;28;20445;-81
2022/08/25 00:49:08;;;;;;;5.83;5.20;;;22.00;99.90;;;;;;5050365;28;20437;-80
2022/08/25 00:51:39;;;;;;;5.93;5.40;;;21.90;99.90;;;;;;5050443;28;20844;-81
2022/08/25 00:54:08;;;;;;;6.87;5.90;;;22.00;99.90;;;;;;5052181;28;20442;-80
2022/08/25 00:56:34;;;;;;;7.43;6.23;;;21.90;99.90;;;;;;5051034;28;21920;-81
2022/08/25 00:59:04;;;;;;;5.87;5.10;;;21.90;99.90;;;;;;5055034;28;20522;-80
2022/08/25 01:01:31;;;;;;;6.63;6.03;;;21.90;99.90;;;;;;5063339;28;20448;-81
2022/08/25 01:03:57;;;;;;;8.47;6.03;;;21.90;99.90;;;;;;5056483;28;20437;-81
2022/08/25 01:06:24;;;;;;;6.73;6.03;;;21.90;99.90;;;;;;5063260;28;20438;-81
2022/08/25 01:08:53;;;;;;;7.50;6.23;;;21.80;99.90;;;;;;5070102;28;20472;-81
2022/08/25 01:11:21;;;;;;;7.20;6.50;;;21.90;99.90;;;;;;5057571;28;20493;-81
2022/08/25 01:13:52;;;;;;;7.40;6.67;;;21.90;99.90;;;;;;5053417;28;20430;-80
2022/08/25 01:16:19;;;;;;;6.87;6.20;;;21.80;99.90;;;;;;5047733;28;20421;-81
2022/08/25 01:18:49;;;;;;;7.33;6.50;;;21.80;99.90;;;;;;5063117;28;20465;-80
2022/08/25 01:21:18;;;;;;;7.93;7.17;;;21.70;99.90;;;;;;5062556;28;20456;-81
2022/08/25 01:23:45;;;;;;;8.60;7.00;;;21.60;99.90;;;;;;5058795;28;20465;-80
2022/08/25 01:26:15;;;;;;;7.53;6.80;;;21.60;99.90;;;;;;5062015;28;20465;-81
2022/08/25 01:31:24;;;;;;;9.03;8.13;;;21.60;99.90;;;;;;5048905;28;20456;-81
2022/08/25 01:33:51;;;;;;;7.67;6.87;;;21.50;99.90;;;;;;5047029;28;20450;-81
2022/08/25 01:36:20;;;;;;;7.33;6.63;;;21.40;99.90;;;;;;5048932;28;20428;-81
2022/08/25 01:38:47;;;;;;;5.90;5.13;;;21.40;99.90;;;;;;5060322;28;20468;-81
2022/08/25 01:41:17;;;;;;;5.53;5.03;;;21.30;99.90;;;;;;5058096;28;20461;-81
2022/08/25 01:43:44;;;;;;;7.60;5.10;;;21.30;99.90;;;;;;5054264;28;20440;-81
2022/08/25 01:46:11;;;;;;;7.07;5.33;;;21.30;99.90;;;;;;5053354;28;20851;-81
2022/08/25 01:48:38;;;;;;;5.83;5.33;;;21.30;99.90;;;;;;5054869;28;20476;-81
2022/08/25 01:51:05;;;;;;;6.07;5.27;;;21.40;99.90;;;;;;5068725;28;20453;-81
2022/08/25 01:53:33;;;;;;;5.60;5.10;;;21.40;99.90;;;;;;5052900;28;20472;-81
2022/08/25 01:56:01;;;;;;;6.10;5.50;;;21.30;99.90;;;;;;5056032;28;20446;-81
2022/08/25 01:58:30;;;;;;;6.30;5.03;;;21.30;99.90;;;;;;5054697;28;20476;-81
2022/08/25 02:01:00;;;;;;;5.60;5.10;;;21.30;99.90;;;;;;5052630;28;20461;-81
2022/08/25 02:03:28;;;;;;;5.73;5.00;;;21.20;99.90;;;;;;5052206;28;20455;-81
2022/08/25 02:05:55;;;;;;;5.40;4.80;;;21.20;99.90;;;;;;5054700;28;20438;-81
2022/08/25 02:08:22;;;;;;;5.60;5.10;;;21.10;99.90;;;;;;5062654;28;20997;-80
2022/08/25 02:10:52;;;;;;;8.27;6.03;;;21.10;99.90;;;;;;5052617;28;21160;-80
2022/08/25 02:13:19;;;;;;;6.80;5.40;;;21.00;99.90;;;;;;5046597;28;20498;-80
2022/08/25 02:15:49;;;;;;;6.80;5.40;;;21.00;99.90;;;;;;5046030;28;20517;-81
2022/08/25 02:18:16;;;;;;;7.23;6.53;;;21.00;99.90;;;;;;5039119;28;20472;-81
2022/08/25 02:20:43;;;;;;;6.70;5.50;;;20.90;99.90;;;;;;5045491;28;20464;-80
2022/08/25 02:23:11;;;;;;;6.00;5.20;;;21.00;99.90;;;;;;5047497;28;21512;-81
2022/08/25 02:25:39;;;;;;;7.00;5.70;;;21.00;99.90;;;;;;5048421;28;20414;-81
2022/08/25 02:28:08;;;;;;;5.70;5.20;;;20.90;99.90;;;;;;5063782;28;21137;-80
2022/08/25 02:30:35;;;;;;;6.17;5.57;;;20.90;99.90;;;;;;5052439;28;20454;-81
2022/08/25 02:33:02;;;;;;;6.90;5.30;;;20.90;99.90;;;;;;5047982;28;20437;-81
2022/08/25 02:35:29;;;;;;;5.90;5.40;;;20.80;99.90;;;;;;5047953;28;20449;-81
2022/08/25 02:37:56;;;;;;;9.53;5.40;;;20.80;99.90;;;;;;5051370;28;20449;-81
2022/08/25 02:40:23;;;;;;;5.83;5.33;;;20.80;99.90;;;;;;5053934;28;20493;-81
2022/08/25 02:42:51;;;;;;;6.50;5.80;;;20.70;99.90;;;;;;5053296;28;20475;-81
2022/08/25 02:45:19;;;;;;;6.00;5.50;;;20.70;99.90;;;;;;5053841;28;20910;-82
2022/08/25 02:47:46;;;;;;;6.03;5.43;;;20.70;99.90;;;;;;5051746;28;20474;-81
2022/08/25 02:50:13;;;;;;;10.27;6.70;;;20.60;99.90;;;;;;5055593;28;20479;-82
2022/08/25 02:52:40;;;;;;;7.67;6.10;;;20.60;99.90;;;;;;5054438;28;20936;-82
2022/08/25 02:55:12;;;;;;;7.57;5.97;;;20.50;99.90;;;;;;5048806;28;20496;-88
2022/08/25 02:57:39;;;;;;;8.30;5.80;;;20.50;99.90;;;;;;5047569;28;20437;-88
2022/08/25 03:00:09;;;;;;;5.77;5.10;;;20.40;99.90;;;;;;5046969;28;21127;-88
2022/08/25 03:02:37;;;;;;;7.37;5.63;;;20.50;99.90;;;;;;5047033;28;20697;-88
2022/08/25 03:05:06;;;;;;;6.80;6.20;;;20.50;99.90;;;;;;5046055;28;20441;-88
2022/08/25 03:07:34;;;;;;;6.90;6.30;;;20.40;99.90;;;;;;5047441;28;20455;-88
2022/08/25 03:10:05;;;;;;;6.63;5.93;;;20.40;99.90;;;;;;5047353;28;20509;-88
2022/08/25 03:12:32;;;;;;;6.67;6.07;;;20.30;99.90;;;;;;5041947;28;20469;-88
2022/08/25 03:18:22;;;;;;;6.30;5.50;;;20.30;99.90;;;;;;5065189;28;20439;-90
2022/08/25 03:20:55;;;;;;;6.53;5.97;;;20.30;99.90;;;;;;5059389;28;20484;-89
2022/08/25 03:23:22;;;;;;;7.17;5.70;;;20.40;99.90;;;;;;5047579;28;20446;-88
2022/08/25 03:28:33;;;;;;;6.73;6.07;;;20.30;99.90;;;;;;5056316;28;20527;-89
2022/08/25 03:31:00;;;;;;;7.80;7.20;;;20.20;99.90;;;;;;5052261;28;20838;-89
2022/08/25 03:33:39;;;;;;;7.13;6.43;;;20.20;99.90;;;;;;5041667;28;20500;-88
2022/08/25 03:36:12;;;;;;;6.60;5.90;;;20.20;99.90;;;;;;5056844;28;20443;-89
2022/08/25 03:38:39;;;;;;;6.07;5.53;;;20.30;99.90;;;;;;5057710;28;20496;-88
2022/08/25 03:41:18;;;;;;;6.27;5.67;;;20.30;99.90;;;;;;5064231;28;20458;-88
2022/08/25 03:43:45;;;;;;;7.20;6.60;;;20.30;99.90;;;;;;5077731;28;20427;-88
2022/08/25 03:46:19;;;;;;;6.87;6.17;;;20.30;99.90;;;;;;5063300;28;20441;-88
2022/08/25 03:48:47;;;;;;;6.93;6.27;;;20.20;99.90;;;;;;5056565;28;20487;-87
2022/08/25 03:51:19;;;;;;;7.37;6.67;;;20.20;99.90;;;;;;5051202;28;20468;-88
2022/08/25 03:53:46;;;;;;;7.23;6.00;;;20.20;99.90;;;;;;5046873;28;20843;-88
2022/08/25 03:56:12;;;;;;;7.63;6.70;;;20.20;99.90;;;;;;5047078;28;20463;-88
2022/08/25 03:58:39;;;;;;;8.30;6.73;;;20.20;99.90;;;;;;5046162;28;20515;-88
2022/08/25 04:01:06;;;;;;;9.00;7.20;;;20.00;99.90;;;;;;5046457;28;20495;-89
2022/08/25 04:03:32;;;;;;;6.83;6.10;;;20.10;99.90;;;;;;5040238;28;20441;-89
2022/08/25 04:06:03;;;;;;;6.80;6.13;;;20.00;99.90;;;;;;5043980;28;20428;-88
2022/08/25 04:08:29;;;;;;;7.17;6.47;;;20.10;99.90;;;;;;5047083;28;20451;-88
2022/08/25 04:10:56;;;;;;;6.87;5.90;;;20.10;99.90;;;;;;5045573;28;21202;-88
2022/08/25 04:13:23;;;;;;;9.63;7.73;;;20.00;99.90;;;;;;5043562;28;20884;-87
2022/08/25 04:15:50;;;;;;;6.97;6.37;;;20.00;99.90;;;;;;5045548;28;20436;-87
2022/08/25 04:18:16;;;;;;;8.03;7.33;;;20.00;99.90;;;;;;5043662;28;20444;-87
2022/08/25 04:20:43;;;;;;;7.57;6.77;;;19.90;99.90;;;;;;5044295;28;20477;-87
2022/08/25 04:23:11;;;;;;;6.80;6.10;;;19.90;99.90;;;;;;5045787;28;20444;-87
2022/08/25 04:25:41;;;;;;;6.97;6.37;;;19.80;99.90;;;;;;5045622;28;20445;-86
2022/08/25 04:28:08;;;;;;;8.40;7.70;;;19.80;99.90;;;;;;5045999;28;20818;-87
2022/08/25 04:30:35;;;;;;;7.37;6.60;;;19.80;99.90;;;;;;5042132;28;20507;-88
2022/08/25 04:33:02;;;;;;;7.13;6.43;;;19.70;99.90;;;;;;5047684;28;20437;-88
2022/08/25 04:35:29;;;;;;;9.20;6.77;;;19.70;99.90;;;;;;5048698;28;20452;-88
2022/08/25 04:37:56;;;;;;;7.60;6.80;;;19.70;99.90;;;;;;5054845;28;20440;-88
2022/08/25 04:40:25;;;;;;;9.33;8.13;;;19.80;99.90;;;;;;5054492;28;21051;-88
2022/08/25 04:42:51;;;;;;;8.90;7.97;;;19.80;99.90;;;;;;5051029;28;20856;-88
2022/08/25 04:45:18;;;;;;;8.30;7.60;;;19.80;99.90;;;;;;5059259;28;20456;-90
2022/08/25 04:47:45;;;;;;;8.93;8.03;;;19.80;99.90;;;;;;5059300;28;20580;-88
2022/08/25 04:50:12;;;;;;;8.47;7.20;;;19.80;99.90;;;;;;5057486;28;20446;-90
2022/08/25 04:52:38;;;;;;;8.47;7.50;;;19.80;99.90;;;;;;5049534;28;20453;-88
2022/08/25 04:55:06;;;;;;;9.20;7.20;;;19.70;99.90;;;;;;5044725;28;20874;-87
2022/08/25 04:57:34;;;;;;;8.97;7.20;;;19.70;99.90;;;;;;5041241;28;20788;-88
2022/08/25 05:00:01;;;;;;;8.80;7.00;;;19.70;99.90;;;;;;5047605;28;20839;-81
2022/08/25 05:02:28;;;;;;;8.73;7.20;;;19.70;99.90;;;;;;5043762;28;20981;-79
2022/08/25 05:04:55;;;;;;;8.03;7.23;;;19.70;99.90;;;;;;5043855;28;20453;-79
2022/08/25 05:07:22;;;;;;;9.77;7.10;;;19.70;99.90;;;;;;5042588;28;20476;-79
2022/08/25 05:09:48;;;;;;;9.00;8.10;;;19.70;99.90;;;;;;5044166;28;20433;-78
2022/08/25 05:12:15;;;;;;;8.90;6.70;;;19.90;99.90;;;;;;5051482;28;20468;-78
2022/08/25 05:14:43;;;;;;;8.93;8.00;;;20.30;99.90;;;;;;5051645;28;20488;-78
2022/08/25 05:17:10;;;;;;;8.77;7.67;;;20.60;99.90;;;;;;5054121;28;20438;-79
2022/08/25 05:19:36;;;;;;;7.20;6.60;;;20.70;99.90;;;;;;5049769;28;20484;-79
2022/08/25 05:22:03;;;;;;;10.70;7.73;;;20.80;99.90;;;;;;5039198;28;20448;-79
2022/08/25 05:24:30;;;;;;;8.70;7.33;;;20.70;99.90;;;;;;5041690;28;20437;-79
2022/08/25 05:26:57;;;;;;;8.37;7.57;;;20.60;99.90;;;;;;5039557;28;20442;-80
2022/08/25 05:29:24;;;;;;;7.77;6.97;;;20.60;99.90;;;;;;5041047;28;20515;-79
2022/08/25 05:31:53;;;;;;;7.60;7.00;;;20.60;99.90;;;;;;5040420;28;20482;-79
2022/08/25 05:34:20;;;;;;;8.07;7.37;;;20.50;99.90;;;;;;5038644;28;20455;-78
2022/08/25 05:36:47;;;;;;;7.10;6.50;;;20.50;99.90;;;;;;5041242;28;20440;-80
2022/08/25 05:39:14;;;;;;;8.97;8.07;;;20.50;99.90;;;;;;5059000;28;20997;-79
2022/08/25 05:41:41;;;;;;;8.13;7.30;;;20.50;99.90;;;;;;5045425;28;20488;-80
2022/08/25 05:44:07;;;;;;;10.40;7.97;;;20.50;99.90;;;;;;5040278;28;21047;-78
2022/08/25 05:46:34;;;;;;;10.30;9.20;;;20.60;99.90;;;;;;5039276;28;20440;-80
2022/08/25 05:49:02;;;;;;;8.30;7.43;;;20.80;99.90;;;;;;5043673;28;20449;-79
2022/08/25 05:51:29;;;;;;;8.00;7.20;;;20.90;99.90;;;;;;5045056;28;21046;-79
2022/08/25 05:53:56;;;;;;;8.20;7.40;;;20.90;99.90;;;;;;5039761;28;20872;-79
2022/08/25 05:56:22;;;;;;;11.03;8.23;;;21.00;99.90;;;;;;5037705;28;20465;-79
2022/08/25 05:58:50;;;;;;;9.53;8.47;;;21.10;99.90;;;;;;5042453;28;20444;-79
2022/08/25 06:04:08;;;;;;;8.60;7.80;;;21.30;99.90;;;;;;5043271;28;20539;-79
2022/08/25 06:06:35;;;;;;;8.63;7.77;;;21.30;99.90;;;;;;5043490;28;20445;-79
2022/08/25 06:09:05;;;;;;;7.90;7.10;;;21.40;99.90;;;;;;5044754;28;20916;-79
2022/08/25 06:11:32;;;;;;;9.27;8.37;;;21.40;99.90;;;;;;5043974;28;20460;-80
2022/08/25 06:13:58;;;;;;;9.37;8.57;;;21.30;99.90;;;;;;5045280;28;20545;-79
2022/08/25 06:16:25;;;;;;;8.03;7.33;;;21.30;99.90;;;;;;5055506;28;20447;-79
2022/08/25 06:18:52;;;;;;;8.73;7.70;;;21.60;99.90;;;;;;5054734;28;20429;-79
2022/08/25 06:21:20;;;;;;;9.63;8.03;;;22.20;99.90;;;;;;5047642;28;20814;-79
2022/08/25 06:23:48;;;;;;;8.77;7.87;;;22.90;99.90;;;;;;5051643;28;20938;-79
2022/08/25 06:26:15;;;;;;;8.73;7.97;;;23.70;99.90;;;;;;5070289;28;20447;-79
2022/08/25 06:28:42;;;;;;;8.67;7.63;;;24.60;99.50;;;;;;5069566;28;20471;-80
2022/08/25 06:31:09;;;;;;;7.17;6.57;;;25.80;97.00;;;;;;5059946;28;20472;-79
2022/08/25 06:33:36;;;;;;;9.60;7.70;;;26.70;93.60;;;;;;5049540;28;20447;-79
2022/08/25 06:36:03;;;;;;;8.20;7.50;;;27.60;91.00;;;;;;5047330;28;20819;-78
2022/08/25 06:38:31;;;;;;;8.90;8.07;;;28.40;86.50;;;;;;5048522;28;20477;-79
2022/08/25 06:40:58;;;;;;;8.17;7.53;;;29.50;81.40;;;;;;5047786;28;20495;-79
2022/08/25 06:43:25;;;;;;;7.60;6.80;;;29.90;75.70;;;;;;5048095;28;20455;-78
2022/08/25 06:45:52;;;;;;;8.93;8.10;;;30.70;72.50;;;;;;5047723;28;20451;-78
2022/08/25 06:48:18;;;;;;;7.57;6.97;;;31.50;69.40;;;;;;5060978;28;20520;-78
2022/08/25 06:50:45;;;;;;;8.40;7.60;;;32.40;64.70;;;;;;5048373;28;20480;-78
2022/08/25 06:53:12;;;;;;;8.27;7.47;;;32.80;62.00;;;;;;5046968;28;20531;-78
2022/08/25 06:55:40;;;;;;;9.53;7.27;;;32.90;59.50;;;;;;5048869;28;20493;-79
2022/08/25 06:58:08;;;;;;;8.30;7.40;;;33.30;58.30;;;;;;5054413;28;20440;-80
2022/08/25 07:00:35;;;;;;;9.33;7.80;;;33.90;56.80;;;;;;5057381;28;20486;-80
2022/08/25 07:03:03;;;;;;;7.63;7.03;;;33.80;56.00;;;;;;5053497;28;20440;-79
2022/08/25 07:05:30;;;;;;;7.47;6.97;;;34.10;55.50;;;;;;5051362;28;20455;-79
2022/08/25 07:07:57;;;;;;;8.67;6.90;;;34.50;54.60;;;;;;5051030;28;20441;-80
2022/08/25 07:10:24;;;;;;;8.70;7.10;;;35.00;53.20;;;;;;5051962;28;20460;-80
2022/08/25 07:12:52;;;;;;;9.17;7.80;;;35.40;52.40;;;;;;5062379;28;20850;-80
2022/08/25 07:15:19;;;;;;;7.70;7.00;;;35.50;51.40;;;;;;5052133;28;20451;-80
2022/08/25 07:17:46;;;;;;;8.37;7.47;;;35.60;51.10;;;;;;5053077;28;20444;-80
2022/08/25 07:20:13;;;;;;;7.20;6.60;;;36.30;50.10;;;;;;5049192;28;20862;-80
2022/08/25 07:22:40;;;;;;;7.60;6.90;;;35.50;50.70;;;;;;5050368;28;20498;-80
2022/08/25 07:25:07;;;;;;;7.50;7.00;;;35.90;50.10;;;;;;5050339;28;20451;-80
2022/08/25 07:27:34;;;;;;;7.07;6.50;;;36.00;49.70;;;;;;5049211;28;20960;-80
2022/08/25 07:30:03;;;;;;;7.67;7.07;;;36.20;49.20;;;;;;5050229;28;20479;-80
2022/08/25 07:32:29;;;;;;;6.97;6.37;;;36.50;48.60;;;;;;5048138;28;20953;-80
2022/08/25 07:37:41;;;;;;;6.77;5.93;;;36.40;48.40;;;;;;5062296;28;20425;-80
2022/08/25 07:40:10;;;;;;;7.13;6.63;;;36.00;48.90;;;;;;5049821;28;21012;-80
2022/08/25 07:42:36;;;;;;;6.73;6.20;;;36.30;48.60;;;;;;5049787;28;20454;-79
2022/08/25 07:45:06;;;;;;;8.37;7.73;;;36.20;48.20;;;;;;5047676;28;20446;-80
2022/08/25 07:47:33;;;;;;;7.33;6.73;;;35.70;49.40;;;;;;5049728;28;20443;-80
2022/08/25 07:50:00;;;;;;;7.73;7.13;;;35.00;50.20;;;;;;5049422;28;20486;-79
2022/08/25 07:52:26;;;;;;;7.20;6.60;;;34.20;51.60;;;;;;5048836;28;20945;-80
2022/08/25 07:54:54;;;;;;;7.80;7.10;;;33.80;52.40;;;;;;5049110;28;20502;-79
2022/08/25 07:57:23;;;;;;;9.27;8.57;;;33.70;52.80;;;;;;5050288;28;20435;-79
2022/08/25 07:59:50;;;;;;;7.27;6.70;;;32.80;53.80;;;;;;5047982;28;20535;-79
2022/08/25 08:02:18;;;;;;;9.03;8.23;;;32.00;55.70;;;;;;5047918;28;20477;-80
2022/08/25 08:04:47;;;;;;;7.90;7.20;;;31.70;56.90;;;;;;5049500;28;20845;-80
2022/08/25 08:07:16;;;;;;;8.57;7.67;;;31.30;57.80;;;;;;5047633;28;20475;-79
2022/08/25 08:09:43;;;;;;;7.77;6.97;;;30.70;59.10;;;;;;5049514;28;20483;-79
2022/08/25 08:12:10;;;;;;;7.83;7.13;;;30.70;59.60;;;;;;5049338;28;20493;-79
2022/08/25 08:14:37;;;;;;;8.17;7.57;;;30.50;60.30;;;;;;5048915;28;20495;-79
2022/08/25 08:17:07;;;;;;;7.93;7.33;;;30.40;60.70;;;;;;5048090;28;20474;-79
2022/08/25 08:19:35;;;;;;;7.77;7.07;;;30.80;60.00;;;;;;5046767;28;20457;-79
2022/08/25 08:22:04;;;;;;;7.77;7.10;;;30.80;60.20;;;;;;5054853;28;20483;-78
2022/08/25 08:24:33;;;;;;;7.07;6.50;;;31.70;58.70;;;;;;5059759;28;20445;-78
2022/08/25 08:27:00;;;;;;;9.13;8.20;;;32.90;55.50;;;;;;5053726;28;20508;-79
2022/08/25 08:29:27;;;;;;;8.60;7.70;;;32.20;56.70;;;;;;5055294;28;20451;-79
2022/08/25 08:31:53;;;;;;;9.93;9.13;;;31.90;57.30;;;;;;5055383;28;20560;-80
2022/08/25 08:34:22;;;;;;;7.70;7.00;;;32.00;57.30;;;;;;5052003;28;20466;-79
2022/08/25 08:36:50;;;;;;;7.23;6.53;;;33.10;55.60;;;;;;5048815;28;20872;-79
2022/08/25 08:39:17;;;;;;;7.73;6.90;;;33.90;54.10;;;;;;5049182;28;20437;-79
2022/08/25 08:42:17;;;;;;;7.20;6.70;;;34.30;53.20;;;;;;5048702;28;20844;-86
2022/08/25 08:44:56;;;;;;;7.00;6.50;;;35.60;51.30;;;;;;5047467;28;20862;-88
2022/08/25 08:47:35;;;;;;;5.50;5.10;;;37.10;49.10;;;;;;5046029;28;20501;-87
2022/08/25 08:50:05;;;;;;;6.70;6.23;;;38.60;46.00;;;;;;5047242;28;20989;-86
2022/08/25 08:52:40;;;;;;;6.57;6.03;;;38.70;44.90;;;;;;5066190;28;20443;-87
2022/08/25 08:55:13;;;;;;;7.33;5.97;;;38.30;44.80;;;;;;5061426;28;20435;-87
2022/08/25 08:57:47;;;;;;;7.57;6.97;;;39.30;43.60;;;;;;5053664;28;20954;-87
2022/08/25 09:00:16;;;;;;;7.40;6.70;;;39.60;42.80;;;;;;5053854;28;20455;-87
2022/08/25 09:02:50;;;;;;;6.30;5.90;;;38.00;44.20;;;;;;5045952;28;20454;-86
2022/08/25 09:05:19;;;;;;;6.83;6.33;;;38.40;44.00;;;;;;5047814;28;21199;-86
2022/08/25 09:07:50;;;;;;;7.23;6.73;;;39.00;43.20;;;;;;5056473;28;20504;-87
2022/08/25 09:10:18;;;;;;;6.93;6.30;;;39.10;41.90;;;;;;5060019;28;20522;-87
2022/08/25 09:12:50;;;;;;;7.03;6.47;;;38.40;43.80;;;;;;5048882;28;20448;-87
2022/08/25 09:16:53;;;;;;;6.83;6.33;;;39.20;42.80;;;;;;5045097;28;20864;-87
2022/08/25 09:18:23;;;;;;;6.60;6.10;;;39.00;42.80;;;;;;5082587;22;20586;-86
2022/08/25 09:21:09;;;;;;;7.27;6.70;;;38.00;43.90;;;;;;5095953;28;20544;-85
2022/08/25 09:23:50;;;;;;;6.90;6.30;;;39.40;42.80;;;;;;5100928;28;20447;-85
2022/08/25 09:26:28;;;;;;;7.57;6.87;;;40.00;41.00;;;;;;5103756;28;20504;-85
2022/08/25 09:29:02;;;;;;;6.47;5.97;;;39.90;41.10;;;;;;5082434;28;21327;-85
2022/08/25 09:31:32;;;;;;;6.90;6.40;;;40.00;40.30;;;;;;5092011;28;20439;-85
2022/08/25 09:34:02;;;;;;;6.53;6.13;;;39.60;40.60;;;;;;5083992;28;20442;-84
2022/08/25 09:36:29;;;;;;;7.07;6.57;;;38.10;42.50;;;;;;5079281;28;20495;-84
2022/08/25 09:38:57;;;;;;;6.90;6.40;;;38.80;42.40;;;;;;5082179;28;20491;-85
2022/08/25 09:41:40;;;;;;;6.40;6.00;;;40.10;40.80;;;;;;5081542;28;20483;-85
2022/08/25 09:44:18;;;;;;;7.43;6.73;;;38.60;41.60;;;;;;5085494;28;20837;-85
2022/08/25 09:46:56;;;;;;;6.67;6.17;;;36.70;44.20;;;;;;5083914;28;20465;-84
2022/08/25 09:49:32;;;;;;;6.93;6.30;;;37.20;44.60;;;;;;5076107;28;20466;-85
2022/08/25 09:52:18;;;;;;;6.87;6.17;;;39.30;42.20;;;;;;5080936;28;20431;-85
2022/08/25 09:54:46;;;;;;;6.63;6.10;;;39.50;40.70;;;;;;5081142;28;20439;-85
2022/08/25 09:57:29;;;;;;;7.23;6.53;;;40.10;39.90;;;;;;5079498;28;20461;-83
2022/08/25 09:59:56;;;;;;;7.33;6.60;;;37.90;41.80;;;;;;5078762;28;20470;-82
2022/08/25 10:02:25;;;;;;;7.27;6.67;;;35.60;45.30;;;;;;5086269;28;20489;-82
2022/08/25 10:04:52;;;;;;;6.60;6.00;;;34.50;47.60;;;;;;5083340;28;20439;-82
2022/08/25 10:07:25;;;;;;;7.17;6.50;;;34.70;48.40;;;;;;5083151;28;20943;-81
2022/08/25 10:09:55;;;;;;;6.87;6.30;;;34.60;48.00;;;;;;5078744;28;20525;-82
2022/08/25 10:12:29;;;;;;;6.80;6.30;;;35.00;48.30;;;;;;5078963;28;20917;-83
2022/08/25 10:14:56;;;;;;;6.50;6.07;;;36.10;46.70;;;;;;5075646;28;20449;-84
2022/08/25 10:17:27;;;;;;;7.70;6.87;;;38.80;43.50;;;;;;5083016;28;20850;-84
2022/08/25 10:19:55;;;;;;;7.37;6.87;;;40.80;40.80;;;;;;5084527;28;20478;-82
2022/08/25 10:22:30;;;;;;;7.37;6.77;;;42.20;38.00;;;;;;5073291;28;20482;-82
2022/08/25 10:24:58;;;;;;;6.80;6.20;;;41.50;38.00;;;;;;5087897;28;20453;-81
2022/08/25 10:27:34;;;;;;;7.10;6.60;;;41.30;37.50;;;;;;5096468;28;20462;-81
2022/08/25 10:30:11;;;;;;;7.50;6.90;;;39.70;39.40;;;;;;5097681;28;20555;-80
2022/08/25 10:32:54;;;;;;;7.83;7.23;;;38.00;41.30;;;;;;5095884;28;20484;-81
2022/08/25 10:35:27;;;;;;;7.17;6.57;;;37.90;42.50;;;;;;5081416;28;20446;-80
2022/08/25 10:38:07;;;;;;;7.00;6.40;;;38.10;42.00;;;;;;5085060;28;20443;-80
2022/08/25 10:40:44;;;;;;;7.53;6.77;;;39.80;39.90;;;;;;5102003;28;20439;-81
2022/08/25 10:43:22;;;;;;;7.10;6.40;;;38.40;40.60;;;;;;5087228;28;20456;-83
2022/08/25 10:45:55;;;;;;;7.40;6.70;;;39.30;41.10;;;;;;5085876;28;20886;-83
2022/08/25 10:48:57;;;;;;;7.17;6.63;;;41.70;37.50;;;;;;5072276;28;20535;-83
2022/08/25 10:51:42;;;;;;;6.20;5.60;;;43.10;35.70;;;;;;5071946;28;20443;-82
2022/08/25 10:54:20;;;;;;;6.00;5.60;;;45.80;32.90;;;;;;5071052;28;20944;-82
2022/08/25 10:56:55;;;;;;;5.80;5.40;;;46.40;30.50;;;;;;5070892;28;20451;-82
2022/08/25 10:59:35;;;;;;;6.30;5.90;;;43.50;33.20;;;;;;5073690;28;20471;-82
2022/08/25 11:02:46;;;;;;;6.27;5.80;;;42.90;33.40;;;;;;5079095;28;20484;-82
2022/08/25 11:05:23;;;;;;;5.50;5.20;;;41.00;35.90;;;;;;5079242;28;20448;-84
2022/08/25 11:07:54;;;;;;;6.30;5.90;;;42.60;35.00;;;;;;5085953;28;20470;-81
2022/08/25 11:10:25;;;;;;;6.60;6.13;;;43.00;34.00;;;;;;5078319;28;20459;-83
2022/08/25 11:12:58;;;;;;;6.03;5.57;;;43.70;33.20;;;;;;5079010;28;20455;-83
2022/08/25 11:15:28;;;;;;;5.60;5.20;;;42.60;32.80;;;;;;5077786;28;20827;-83
2022/08/25 11:17:58;;;;;;;6.77;5.90;;;43.10;33.60;;;;;;5078608;28;20452;-83
2022/08/25 11:20:32;;;;;;;5.40;5.00;;;44.10;31.80;;;;;;5078890;28;20998;-83
2022/08/25 11:23:10;;;;;;;5.20;4.80;;;44.30;31.10;;;;;;5078910;28;20479;-83
2022/08/25 11:25:41;;;;;;;7.97;5.07;;;43.20;32.60;;;;;;5079305;28;20448;-83
2022/08/25 11:28:14;;;;;;;6.13;5.63;;;42.80;32.40;;;;;;5077686;28;20801;-82
2022/08/25 11:30:43;;;;;;;6.83;5.10;;;41.90;33.20;;;;;;5078837;28;20436;-83
2022/08/25 11:33:13;;;;;;;4.87;4.57;;;41.50;33.50;;;;;;5077215;28;20494;-84
2022/08/25 11:35:43;;;;;;;4.57;3.97;;;40.80;33.70;;;;;;5088401;28;20428;-81
2022/08/25 11:38:30;;;;;;;3.60;3.27;;;41.20;32.60;;;;;;5098972;28;20482;-81
2022/08/25 11:41:07;;;;;;;4.40;4.00;;;39.30;33.90;;;;;;5098719;28;20439;-81
2022/08/25 11:43:57;;;;;;;5.57;5.07;;;38.80;35.30;;;;;;5098326;28;20476;-79
2022/08/25 11:46:35;;;;;;;4.67;4.20;;;38.20;36.30;;;;;;5075295;28;20444;-81
2022/08/25 11:49:27;;;;;;;4.40;4.00;;;36.40;38.30;;;;;;5073851;28;20455;-80
2022/08/25 11:51:54;;;;;;;4.77;4.37;;;35.70;39.90;;;;;;5070660;28;20438;-81
2022/08/25 11:54:24;;;;;;;4.23;3.93;;;37.00;39.30;;;;;;5072590;28;20454;-81
2022/08/25 11:56:54;;;;;;;4.37;4.03;;;39.90;35.70;;;;;;5071851;28;20446;-82
2022/08/25 11:59:59;;;;;;;3.73;3.47;;;41.10;32.80;;;;;;5074195;28;20486;-80
2022/08/25 12:02:37;;;;;;;4.37;3.97;;;43.00;31.00;;;;;;5074762;28;20498;-82
2022/08/25 12:05:06;;;;;;;4.10;3.70;;;43.60;30.00;;;;;;5073611;28;20517;-82
2022/08/25 12:11:02;;;;;;;7.03;4.70;;;43.10;30.00;;;;;;5073044;28;20470;-81
2022/08/25 12:13:48;;;;;;;5.40;4.57;;;42.40;31.10;;;;;;5076803;28;20448;-82
2022/08/25 12:16:37;;;;;;;4.77;4.37;;;42.20;31.80;;;;;;5077967;28;20851;-82
2022/08/25 12:19:26;;;;;;;4.70;4.30;;;42.10;31.60;;;;;;5074009;28;20472;-82
2022/08/25 12:21:54;;;;;;;4.63;4.23;;;41.50;33.00;;;;;;5072318;28;20491;-82
2022/08/25 12:24:24;;;;;;;4.63;4.33;;;42.60;31.50;;;;;;5079792;28;20467;-80
2022/08/25 12:26:57;;;;;;;5.40;3.97;;;42.00;31.30;;;;;;5093657;28;20470;-79
2022/08/25 12:29:40;;;;;;;4.23;3.93;;;40.10;32.40;;;;;;5096652;28;20447;-85
2022/08/25 12:32:25;;;;;;;4.70;4.30;;;39.70;34.30;;;;;;5089174;28;20439;-81
2022/08/25 12:35:16;;;;;;;4.03;3.73;;;40.60;33.00;;;;;;5081646;28;20980;-85
2022/08/25 12:38:04;;;;;;;3.97;3.67;;;42.90;31.60;;;;;;5076373;28;20492;-83
2022/08/25 12:40:35;;;;;;;4.10;3.70;;;43.70;29.30;;;;;;5077867;28;21050;-83
2022/08/25 12:43:22;;;;;;;4.10;3.70;;;43.30;29.40;;;;;;5078764;28;20559;-83
2022/08/25 12:45:50;;;;;;;3.67;3.47;;;44.50;29.00;;;;;;5077127;28;20459;-83
2022/08/25 12:48:52;;;;;;;4.13;3.83;;;45.30;27.90;;;;;;5076366;28;20876;-83
2022/08/25 12:51:21;;;;;;;4.90;4.23;;;44.60;28.80;;;;;;5073455;28;20432;-83
2022/08/25 12:53:52;;;;;;;4.30;4.00;;;42.60;29.70;;;;;;5076101;28;20436;-82
2022/08/25 12:56:26;;;;;;;4.30;4.00;;;42.70;30.70;;;;;;5073827;28;20448;-83
2022/08/25 12:59:01;;;;;;;4.20;3.90;;;43.80;29.20;;;;;;5076389;28;20961;-83
2022/08/25 13:01:37;;;;;;;4.20;3.87;;;42.90;29.70;;;;;;5075841;28;20455;-84
2022/08/25 13:04:26;;;;;;;4.83;3.40;;;44.10;29.50;;;;;;5074783;28;20854;-84
2022/08/25 13:07:20;;;;;;;4.40;3.97;;;44.50;28.70;;;;;;5076671;28;20452;-84
2022/08/25 13:10:09;;;;;;;4.30;4.00;;;44.80;28.40;;;;;;5094953;28;20448;-85
2022/08/25 13:12:43;;;;;;;3.77;3.47;;;44.30;28.40;;;;;;5097194;28;20511;-80
2022/08/25 13:15:14;;;;;;;4.03;3.73;;;44.70;28.10;;;;;;5094524;28;20428;-82
2022/08/25 13:17:41;;;;;;;3.90;3.60;;;44.10;28.50;;;;;;5083094;28;20460;-81
2022/08/25 13:20:12;;;;;;;3.97;3.67;;;44.10;28.30;;;;;;5082112;28;20448;-83
2022/08/25 13:22:43;;;;;;;4.63;4.33;;;43.80;27.80;;;;;;5075051;28;20854;-82